Marietta, Washington
Current Conditions -  °F | °C
As of 11:53 AM on Monday 26 Jan 2015 (Local Time) from KBLI Reporting Station
Clear Clear  
Wind Chill: 45°   Ceiling: Unl
Heat Index: 48°   Visibility: 10mi
Dew Point: 46°   Wind: 6mph
Humidity: 93%   Direction: 10°N
Pressure: 29.91"   Gusts: NA
Location:  48.7531°N, 122.502°W
Report Text: KBLI 261953Z 01005KT 10SM CLR 09/08 A2991 RMK AO2 SLP136 T00890078
Loading
Personal Weather Stations






























Interactive Weather Map New forecast layout! Learn more

10-Day Weather Forecast

Advertisements
Track Severe Weather on mobile